createdAt,value
2019-01-19T00:00:49.678Z,0
2019-01-19T00:01:57.744Z,0
2019-01-19T00:03:05.787Z,0
2019-01-19T00:04:13.842Z,0
2019-01-19T00:05:21.885Z,0
2019-01-19T00:06:29.931Z,0
2019-01-19T00:07:37.992Z,0
2019-01-19T00:08:46.050Z,0
2019-01-19T00:09:54.092Z,0
2019-01-19T00:11:02.131Z,0
2019-01-19T00:12:10.188Z,0
2019-01-19T00:13:18.257Z,0
2019-01-19T00:14:26.304Z,0
2019-01-19T00:15:34.351Z,0
2019-01-19T00:16:42.483Z,0
2019-01-19T00:17:50.430Z,0
2019-01-19T00:18:58.492Z,0
2019-01-19T00:20:06.547Z,0
2019-01-19T00:21:14.589Z,0
2019-01-19T00:22:22.641Z,0
2019-01-19T00:23:30.661Z,0
2019-01-19T00:24:38.739Z,0
2019-01-19T00:25:46.803Z,0
2019-01-19T00:26:54.845Z,0
2019-01-19T00:28:02.885Z,0
2019-01-19T00:29:10.918Z,0
2019-01-19T00:30:18.994Z,0
2019-01-19T00:31:27.037Z,0
2019-01-19T00:32:35.095Z,0
2019-01-19T00:33:43.157Z,0
2019-01-19T00:34:51.174Z,0
2019-01-19T00:35:59.261Z,0
2019-01-19T00:37:07.291Z,0
2019-01-19T00:38:15.341Z,0
2019-01-19T00:39:23.403Z,0
2019-01-19T00:40:31.435Z,0
2019-01-19T00:41:39.510Z,0
2019-01-19T00:42:47.560Z,0
2019-01-19T00:43:55.600Z,0
2019-01-19T00:45:03.655Z,0
2019-01-19T00:46:11.710Z,0
2019-01-19T00:47:19.747Z,0
2019-01-19T00:48:27.796Z,0
2019-01-19T00:49:35.851Z,0
2019-01-19T00:50:43.892Z,0
2019-01-19T00:51:51.954Z,0
2019-01-19T00:53:00.004Z,0
2019-01-19T00:54:08.078Z,0
2019-01-19T00:55:16.102Z,0
2019-01-19T00:56:24.159Z,0
2019-01-19T00:57:32.203Z,0
2019-01-19T00:58:40.267Z,0
2019-01-19T00:59:48.306Z,0
2019-01-19T01:00:56.350Z,0
2019-01-19T01:02:04.409Z,0
2019-01-19T01:03:12.466Z,0
2019-01-19T01:04:20.490Z,0
2019-01-19T01:05:28.566Z,0
2019-01-19T01:06:36.594Z,0
2019-01-19T01:07:44.648Z,0
2019-01-19T01:08:52.699Z,0
2019-01-19T01:10:00.744Z,0
2019-01-19T01:11:08.805Z,0
2019-01-19T01:12:16.857Z,0
2019-01-19T01:13:24.914Z,0
2019-01-19T01:14:32.954Z,0
2019-01-19T01:15:40.976Z,0
2019-01-19T01:16:49.053Z,0
2019-01-19T01:17:57.095Z,0
2019-01-19T01:19:05.160Z,0
2019-01-19T01:20:13.216Z,0
2019-01-19T01:21:21.245Z,0
2019-01-19T01:22:29.309Z,0
2019-01-19T01:23:37.367Z,0
2019-01-19T01:24:45.407Z,0
2019-01-19T01:25:53.455Z,0
2019-01-19T01:27:01.497Z,0
2019-01-19T01:28:09.563Z,0
2019-01-19T01:29:17.608Z,0
2019-01-19T01:30:25.664Z,0
2019-01-19T01:31:33.717Z,0
2019-01-19T01:32:41.769Z,0
2019-01-19T01:33:49.809Z,0
2019-01-19T01:34:57.868Z,0
2019-01-19T01:36:05.909Z,0
2019-01-19T01:37:13.972Z,0
2019-01-19T01:38:22.015Z,0
2019-01-19T01:39:30.068Z,0
2019-01-19T01:40:38.104Z,0
2019-01-19T01:41:46.157Z,0
2019-01-19T01:42:54.224Z,0
2019-01-19T01:44:02.266Z,0
2019-01-19T01:45:10.310Z,0
2019-01-19T01:46:18.376Z,0
2019-01-19T01:47:26.510Z,0
2019-01-19T01:48:34.465Z,0
2019-01-19T01:49:42.519Z,0
2019-01-19T01:50:50.552Z,0
2019-01-19T01:51:58.607Z,0
2019-01-19T01:53:06.664Z,0
2019-01-19T01:54:14.731Z,0
2019-01-19T01:55:22.757Z,0
2019-01-19T01:56:30.789Z,0
2019-01-19T01:57:38.858Z,0
2019-01-19T01:58:46.920Z,0
2019-01-19T01:59:54.964Z,0
2019-01-19T02:01:03.021Z,0
2019-01-19T02:02:11.052Z,0
2019-01-19T02:03:19.121Z,0
2019-01-19T02:04:27.181Z,0
2019-01-19T02:05:40.153Z,0
2019-01-19T02:06:43.266Z,0
2019-01-19T02:07:51.288Z,0
2019-01-19T02:08:59.369Z,0
2019-01-19T02:10:07.417Z,0
2019-01-19T02:11:15.478Z,0
2019-01-19T02:12:23.531Z,0
2019-01-19T02:13:31.572Z,0
2019-01-19T02:14:39.624Z,0
2019-01-19T02:15:47.677Z,0
2019-01-19T02:16:55.720Z,0
2019-01-19T02:18:03.777Z,0
2019-01-19T02:19:11.835Z,0
2019-01-19T02:20:19.889Z,0
2019-01-19T02:21:27.925Z,0
2019-01-19T02:22:35.976Z,0
2019-01-19T02:23:44.112Z,0
2019-01-19T02:24:52.082Z,0
2019-01-19T02:26:00.122Z,0
2019-01-19T02:27:08.166Z,0
2019-01-19T02:28:16.229Z,0
2019-01-19T02:29:24.280Z,0
2019-01-19T02:30:32.341Z,0
2019-01-19T02:31:40.375Z,0
2019-01-19T02:32:48.445Z,0
2019-01-19T02:33:56.483Z,0
2019-01-19T02:35:04.540Z,0
2019-01-19T02:36:12.577Z,0
2019-01-19T02:37:20.624Z,0
2019-01-19T02:38:28.689Z,0
2019-01-19T02:39:36.743Z,0
2019-01-19T02:40:44.780Z,0
2019-01-19T02:41:52.826Z,0
2019-01-19T02:43:00.847Z,0
2019-01-19T02:44:08.931Z,0
2019-01-19T02:45:16.970Z,0
2019-01-19T02:46:25.038Z,0
2019-01-19T02:47:33.089Z,0
2019-01-19T02:48:41.116Z,0
2019-01-19T02:49:49.190Z,0
2019-01-19T02:50:57.240Z,0
2019-01-19T02:52:05.286Z,0
2019-01-19T02:53:13.324Z,0
2019-01-19T02:54:21.359Z,0
2019-01-19T02:55:29.449Z,0
2019-01-19T02:56:37.493Z,0
2019-01-19T02:57:45.539Z,0
2019-01-19T02:58:53.583Z,0
2019-01-19T03:00:01.633Z,0
2019-01-19T03:01:09.683Z,0
2019-01-19T03:02:17.723Z,0
2019-01-19T03:03:25.798Z,0
2019-01-19T03:04:33.834Z,0
2019-01-19T03:05:41.881Z,0
2019-01-19T03:06:49.929Z,0
2019-01-19T03:07:57.981Z,0
2019-01-19T03:09:06.037Z,0
2019-01-19T03:10:14.092Z,0
2019-01-19T03:11:22.139Z,0
2019-01-19T03:12:30.190Z,0
2019-01-19T03:13:38.256Z,0
2019-01-19T03:14:46.284Z,0
2019-01-19T03:15:54.323Z,0
2019-01-19T03:17:02.391Z,0
2019-01-19T03:18:10.430Z,0
2019-01-19T03:19:18.499Z,0
2019-01-19T03:20:26.540Z,0
2019-01-19T03:21:34.580Z,0
2019-01-19T03:22:42.633Z,0
2019-01-19T03:23:50.664Z,0
2019-01-19T03:24:58.743Z,0
2019-01-19T03:26:06.794Z,0
2019-01-19T03:27:14.853Z,0
2019-01-19T03:28:22.891Z,0
2019-01-19T03:29:30.906Z,0
2019-01-19T03:30:39.126Z,0
2019-01-19T03:31:47.090Z,0
2019-01-19T03:32:55.105Z,0
2019-01-19T03:34:03.154Z,0
2019-01-19T03:35:11.169Z,0
2019-01-19T03:36:19.239Z,0
2019-01-19T03:37:27.307Z,0
2019-01-19T03:38:35.339Z,0
2019-01-19T03:39:43.383Z,0
2019-01-19T03:40:51.411Z,0
2019-01-19T03:41:59.622Z,0
2019-01-19T03:43:07.542Z,0
2019-01-19T03:44:15.588Z,0
2019-01-19T03:45:23.765Z,0
2019-01-19T03:46:31.682Z,0
2019-01-19T03:47:39.750Z,0
2019-01-19T03:48:48.024Z,0
2019-01-19T03:49:55.836Z,0
2019-01-19T03:51:04.755Z,0
2019-01-19T03:52:11.957Z,0
2019-01-19T03:53:19.995Z,0
2019-01-19T03:54:28.042Z,0
2019-01-19T03:55:36.109Z,0
2019-01-19T03:56:44.145Z,0
2019-01-19T03:57:52.197Z,0
2019-01-19T03:59:00.233Z,0
2019-01-19T04:00:08.289Z,0
2019-01-19T04:01:16.353Z,0
2019-01-19T04:02:24.393Z,0
2019-01-19T04:03:32.445Z,0
2019-01-19T04:04:40.483Z,0
2019-01-19T04:05:48.534Z,0
2019-01-19T04:06:56.612Z,0
2019-01-19T04:08:04.647Z,0
2019-01-19T04:09:12.690Z,0
2019-01-19T04:10:20.713Z,0
2019-01-19T04:11:28.796Z,0
2019-01-19T04:12:36.843Z,0
2019-01-19T04:13:44.887Z,0
2019-01-19T04:14:52.937Z,0
2019-01-19T04:16:00.968Z,0
2019-01-19T04:17:09.041Z,0
2019-01-19T04:18:17.084Z,0
2019-01-19T04:19:25.143Z,0
2019-01-19T04:20:33.289Z,0
2019-01-19T04:21:41.205Z,0
2019-01-19T04:22:49.297Z,0
2019-01-19T04:23:57.332Z,0
2019-01-19T04:25:05.376Z,0
2019-01-19T04:26:13.431Z,0
2019-01-19T04:27:21.473Z,0
2019-01-19T04:28:29.536Z,0
2019-01-19T04:29:37.590Z,0
2019-01-19T04:30:45.634Z,0
2019-01-19T04:31:53.673Z,0
2019-01-19T04:33:01.745Z,0
2019-01-19T04:34:09.787Z,0
2019-01-19T04:35:17.830Z,0
2019-01-19T04:36:25.888Z,0
2019-01-19T04:37:33.932Z,0
2019-01-19T04:38:41.977Z,0
2019-01-19T04:39:50.034Z,0
2019-01-19T04:40:58.084Z,0
2019-01-19T04:42:06.131Z,0
2019-01-19T04:43:14.194Z,0
2019-01-19T04:44:22.249Z,0
2019-01-19T04:45:30.300Z,0
2019-01-19T04:46:38.321Z,0
2019-01-19T04:47:46.381Z,0
2019-01-19T04:48:54.439Z,0
2019-01-19T04:50:02.482Z,0
2019-01-19T04:51:10.527Z,0
2019-01-19T04:52:18.584Z,0
2019-01-19T04:53:26.639Z,0
2019-01-19T04:54:34.676Z,0
2019-01-19T04:55:42.738Z,0
2019-01-19T04:56:50.771Z,0
2019-01-19T04:57:58.824Z,0
2019-01-19T04:59:06.893Z,0
2019-01-19T05:00:14.929Z,0
2019-01-19T05:01:22.997Z,0
2019-01-19T05:02:31.013Z,0
2019-01-19T05:03:39.090Z,0
2019-01-19T05:04:47.139Z,0
2019-01-19T05:05:55.183Z,0
2019-01-19T05:07:03.230Z,0
2019-01-19T05:08:11.253Z,0
2019-01-19T05:09:19.333Z,0
2019-01-19T05:10:27.408Z,0
2019-01-19T05:11:35.441Z,0
2019-01-19T05:12:43.492Z,0
2019-01-19T05:13:51.526Z,0
2019-01-19T05:14:59.592Z,0
2019-01-19T05:16:07.627Z,0
2019-01-19T05:17:15.681Z,0
2019-01-19T05:18:23.735Z,0
2019-01-19T05:19:31.810Z,0
2019-01-19T05:20:39.828Z,0
2019-01-19T05:21:47.891Z,0
2019-01-19T05:22:55.940Z,0
2019-01-19T05:24:03.986Z,0
2019-01-19T05:25:12.029Z,0
2019-01-19T05:26:20.076Z,0
2019-01-19T05:27:28.153Z,0
2019-01-19T05:28:36.175Z,0
2019-01-19T05:29:44.242Z,0
2019-01-19T05:30:52.299Z,0
2019-01-19T05:32:00.341Z,0
2019-01-19T05:33:08.402Z,0
2019-01-19T05:34:16.445Z,0
2019-01-19T05:35:24.489Z,0
2019-01-19T05:36:38.175Z,0
2019-01-19T05:37:40.564Z,0
2019-01-19T05:38:48.649Z,0
2019-01-19T05:39:56.690Z,0
2019-01-19T05:41:04.734Z,0
2019-01-19T05:42:12.794Z,0
2019-01-19T05:43:20.821Z,0
2019-01-19T05:44:28.892Z,0
2019-01-19T05:45:36.947Z,0
2019-01-19T05:46:44.995Z,0
2019-01-19T05:47:53.036Z,0
2019-01-19T05:49:01.080Z,0
2019-01-19T05:50:09.139Z,0
2019-01-19T05:51:17.195Z,0
2019-01-19T05:52:25.248Z,0
2019-01-19T05:53:33.317Z,0
2019-01-19T05:54:41.349Z,0
2019-01-19T05:55:49.401Z,0
2019-01-19T05:56:57.445Z,0
2019-01-19T05:58:05.507Z,0
2019-01-19T05:59:14.424Z,0
2019-01-19T06:00:21.583Z,0
2019-01-19T06:01:29.650Z,0
2019-01-19T06:02:37.692Z,0
2019-01-19T06:03:45.825Z,0
2019-01-19T06:04:54.089Z,0
2019-01-19T06:06:01.842Z,0
2019-01-19T06:07:09.919Z,0
2019-01-19T06:08:17.951Z,0
2019-01-19T06:09:26.009Z,0
2019-01-19T06:10:34.392Z,0
2019-01-19T06:11:42.099Z,0
2019-01-19T06:12:50.149Z,0
2019-01-19T06:13:58.199Z,0
2019-01-19T06:15:06.259Z,0
2019-01-19T06:16:14.303Z,0
2019-01-19T06:17:22.458Z,0
2019-01-19T06:18:30.404Z,0
2019-01-19T06:19:38.517Z,0
2019-01-19T06:20:46.516Z,0
2019-01-19T06:21:54.548Z,0
2019-01-19T06:23:03.234Z,0
2019-01-19T06:24:10.657Z,0
2019-01-19T06:25:18.708Z,0
2019-01-19T06:26:26.763Z,0
2019-01-19T06:27:34.797Z,0
2019-01-19T06:28:42.867Z,0
2019-01-19T06:29:50.899Z,0
2019-01-19T06:30:59.014Z,0
2019-01-19T06:32:07.017Z,0
2019-01-19T06:33:15.112Z,0
2019-01-19T06:34:23.122Z,0
2019-01-19T06:35:31.210Z,0
2019-01-19T06:36:39.219Z,0
2019-01-19T06:37:47.264Z,4
2019-01-19T06:38:55.306Z,4
2019-01-19T06:40:03.409Z,4
2019-01-19T06:41:12.025Z,4
2019-01-19T06:42:19.517Z,4
2019-01-19T06:43:27.508Z,8
2019-01-19T06:44:35.576Z,4
2019-01-19T06:45:43.607Z,4
2019-01-19T06:46:52.182Z,12
2019-01-19T06:47:59.719Z,12
2019-01-19T06:49:07.765Z,12
2019-01-19T06:50:15.812Z,16
2019-01-19T06:51:23.893Z,20
2019-01-19T06:52:31.913Z,24
2019-01-19T06:53:39.970Z,24
2019-01-19T06:54:48.007Z,28
2019-01-19T06:55:56.071Z,36
2019-01-19T06:57:04.142Z,40
2019-01-19T06:58:12.178Z,44
2019-01-19T06:59:20.243Z,52
2019-01-19T07:00:28.281Z,56
2019-01-19T07:01:36.340Z,68
2019-01-19T07:02:44.604Z,76
2019-01-19T07:03:52.433Z,88
2019-01-19T07:05:00.466Z,104
2019-01-19T07:06:08.549Z,116
2019-01-19T07:07:16.585Z,132
2019-01-19T07:08:24.639Z,148
2019-01-19T07:09:32.691Z,168
2019-01-19T07:10:40.724Z,184
2019-01-19T07:11:48.792Z,196
2019-01-19T07:12:56.823Z,208
2019-01-19T07:14:04.884Z,216
2019-01-19T07:15:12.941Z,228
2019-01-19T07:16:20.976Z,240
2019-01-19T07:17:29.036Z,256
2019-01-19T07:18:37.093Z,272
2019-01-19T07:19:45.149Z,292
2019-01-19T07:20:53.600Z,308
2019-01-19T07:22:01.240Z,332
2019-01-19T07:23:09.294Z,356
2019-01-19T07:24:17.345Z,408
2019-01-19T07:25:25.390Z,452
2019-01-19T07:26:33.449Z,456
2019-01-19T07:27:41.488Z,448
2019-01-19T07:28:49.551Z,460
2019-01-19T07:29:57.595Z,464
2019-01-19T07:31:05.649Z,472
2019-01-19T07:32:13.710Z,492
2019-01-19T07:33:21.754Z,524
2019-01-19T07:34:29.802Z,568
2019-01-19T07:35:37.857Z,644
2019-01-19T07:36:45.898Z,688
2019-01-19T07:37:53.966Z,664
2019-01-19T07:39:01.996Z,628
2019-01-19T07:40:10.050Z,628
2019-01-19T07:41:18.098Z,640
2019-01-19T07:42:26.173Z,660
2019-01-19T07:43:34.216Z,692
2019-01-19T07:44:42.278Z,728
2019-01-19T07:45:50.474Z,788
2019-01-19T07:46:58.358Z,900
2019-01-19T07:48:06.458Z,992
2019-01-19T07:49:14.479Z,1068
2019-01-19T07:50:22.531Z,1168
2019-01-19T07:51:30.576Z,1268
2019-01-19T07:52:38.650Z,1316
2019-01-19T07:53:46.673Z,1344
2019-01-19T07:54:55.208Z,1392
2019-01-19T07:56:02.785Z,1484
2019-01-19T07:57:10.813Z,1560
2019-01-19T07:58:18.892Z,1608
2019-01-19T07:59:26.929Z,1636
2019-01-19T08:00:35.093Z,1648
2019-01-19T08:01:43.031Z,1660
2019-01-19T08:02:51.068Z,1680
2019-01-19T08:04:00.440Z,1712
2019-01-19T08:05:07.204Z,1752
2019-01-19T08:06:15.216Z,1792
2019-01-19T08:07:23.285Z,1804
2019-01-19T08:08:31.335Z,1812
2019-01-19T08:09:39.393Z,1848
2019-01-19T08:10:47.441Z,1892
2019-01-19T08:11:55.509Z,1892
2019-01-19T08:13:03.607Z,1900
2019-01-19T08:14:11.701Z,1924
2019-01-19T08:15:19.808Z,1976
2019-01-19T08:16:27.700Z,2008
2019-01-19T08:17:35.748Z,2032
2019-01-19T08:18:43.819Z,2040
2019-01-19T08:19:52.315Z,2040
2019-01-19T08:21:00.078Z,2012
2019-01-19T08:22:08.268Z,2012
2019-01-19T08:23:16.380Z,2096
2019-01-19T08:24:24.050Z,2156
2019-01-19T08:25:32.559Z,2140
2019-01-19T08:26:40.169Z,2092
2019-01-19T08:27:48.208Z,2108
2019-01-19T08:28:56.659Z,2168
2019-01-19T08:30:04.736Z,2224
2019-01-19T08:31:12.389Z,2276
2019-01-19T08:32:20.899Z,2284
2019-01-19T08:33:28.510Z,2264
2019-01-19T08:34:36.664Z,2260
2019-01-19T08:35:44.613Z,2324
2019-01-19T08:36:52.670Z,2424
2019-01-19T08:38:01.073Z,2540
2019-01-19T08:39:08.715Z,2592
2019-01-19T08:40:16.784Z,2640
2019-01-19T08:41:24.824Z,2700
2019-01-19T08:42:33.347Z,2736
2019-01-19T08:43:40.924Z,2752
2019-01-19T08:44:48.996Z,2760
2019-01-19T08:45:57.407Z,2748
2019-01-19T08:47:05.088Z,2732
2019-01-19T08:48:13.322Z,2756
2019-01-19T08:49:21.170Z,2812
2019-01-19T08:50:29.241Z,2828
2019-01-19T08:51:37.309Z,2840
2019-01-19T08:52:45.730Z,2892
2019-01-19T08:53:53.621Z,2960
2019-01-19T08:55:01.613Z,3048
2019-01-19T08:56:09.562Z,3124
2019-01-19T08:57:17.553Z,3224
2019-01-19T08:58:27.035Z,3320
2019-01-19T08:59:33.895Z,3396
2019-01-19T09:00:41.735Z,3424
2019-01-19T09:01:49.801Z,3456
2019-01-19T09:02:57.866Z,3476
2019-01-19T09:04:06.520Z,3512
2019-01-19T09:05:14.071Z,3536
2019-01-19T09:06:21.995Z,3564
2019-01-19T09:07:33.756Z,3628
2019-01-19T09:08:38.107Z,3736
2019-01-19T09:09:46.188Z,3904
2019-01-19T09:10:54.245Z,4104
2019-01-19T09:12:02.243Z,4260
2019-01-19T09:13:10.289Z,4328
2019-01-19T09:14:18.336Z,4272
2019-01-19T09:15:26.413Z,4280
2019-01-19T09:16:39.547Z,4348
2019-01-19T09:17:42.505Z,4388
2019-01-19T09:18:50.546Z,4408
2019-01-19T09:19:58.617Z,4416
2019-01-19T09:21:06.652Z,4392
2019-01-19T09:22:14.720Z,4500
2019-01-19T09:23:22.761Z,4676
2019-01-19T09:24:30.812Z,4844
2019-01-19T09:25:38.872Z,4952
2019-01-19T09:26:46.926Z,4944
2019-01-19T09:27:54.981Z,4952
2019-01-19T09:29:03.041Z,4920
2019-01-19T09:30:11.041Z,4940
2019-01-19T09:31:19.155Z,5008
2019-01-19T09:32:27.190Z,5028
2019-01-19T09:33:35.243Z,5060
2019-01-19T09:34:43.287Z,5128
2019-01-19T09:35:51.304Z,5168
2019-01-19T09:36:59.414Z,5108
2019-01-19T09:38:07.458Z,5180
2019-01-19T09:39:15.552Z,5120
2019-01-19T09:40:23.576Z,5204
2019-01-19T09:41:31.616Z,5704
2019-01-19T09:42:39.654Z,6208
2019-01-19T09:43:47.708Z,6524
2019-01-19T09:44:55.771Z,6808
2019-01-19T09:46:03.817Z,6896
2019-01-19T09:47:11.868Z,6784
2019-01-19T09:48:19.927Z,6904
2019-01-19T09:49:27.974Z,6944
2019-01-19T09:50:36.044Z,6872
2019-01-19T09:51:44.072Z,7064
2019-01-19T09:52:52.125Z,7396
2019-01-19T09:54:00.202Z,7652
2019-01-19T09:55:08.243Z,7944
2019-01-19T09:56:16.272Z,8000
2019-01-19T09:57:24.349Z,7708
2019-01-19T09:58:32.404Z,7708
2019-01-19T09:59:40.444Z,8160
2019-01-19T10:00:48.528Z,8288
2019-01-19T10:01:56.569Z,7424
2019-01-19T10:03:04.604Z,6648
2019-01-19T10:04:12.966Z,6356
2019-01-19T10:05:20.716Z,6192
2019-01-19T10:06:28.774Z,6028
2019-01-19T10:07:36.816Z,5976
2019-01-19T10:08:44.887Z,5852
2019-01-19T10:09:52.912Z,5756
2019-01-19T10:11:00.970Z,6032
2019-01-19T10:12:09.044Z,5932
2019-01-19T10:13:17.102Z,5784
2019-01-19T10:14:25.137Z,5896
2019-01-19T10:15:33.198Z,5920
2019-01-19T10:16:41.229Z,6076
2019-01-19T10:17:49.306Z,6424
2019-01-19T10:18:57.374Z,6792
2019-01-19T10:20:05.405Z,7276
2019-01-19T10:21:13.472Z,7460
2019-01-19T10:22:21.532Z,6960
2019-01-19T10:23:29.558Z,6260
2019-01-19T10:24:37.619Z,5968
2019-01-19T10:25:45.686Z,5900
2019-01-19T10:26:53.748Z,6064
2019-01-19T10:28:01.783Z,6328
2019-01-19T10:29:09.842Z,6764
2019-01-19T10:30:17.883Z,7472
2019-01-19T10:31:26.049Z,7624
2019-01-19T10:32:34.022Z,7272
2019-01-19T10:33:42.115Z,7504
2019-01-19T10:34:50.166Z,7644
2019-01-19T10:35:58.195Z,7724
2019-01-19T10:37:06.224Z,7844
2019-01-19T10:38:14.260Z,7948
2019-01-19T10:39:22.324Z,8004
2019-01-19T10:40:30.404Z,7328
2019-01-19T10:41:40.938Z,7192
2019-01-19T10:42:46.492Z,6888
2019-01-19T10:43:54.537Z,6544
2019-01-19T10:45:02.969Z,6804
2019-01-19T10:46:10.619Z,6620
2019-01-19T10:47:18.716Z,6740
2019-01-19T10:48:26.774Z,7252
2019-01-19T10:49:35.054Z,7268
2019-01-19T10:50:42.874Z,6960
2019-01-19T10:51:50.902Z,6852
2019-01-19T10:52:58.978Z,6916
2019-01-19T10:54:07.032Z,7072
2019-01-19T10:55:15.081Z,7264
2019-01-19T10:56:23.120Z,7504
2019-01-19T10:57:31.161Z,7712
2019-01-19T10:58:39.298Z,7812
2019-01-19T10:59:47.353Z,7600
2019-01-19T11:00:55.354Z,7212
2019-01-19T11:02:03.417Z,6832
2019-01-19T11:03:11.439Z,6816
2019-01-19T11:04:19.522Z,6888
2019-01-19T11:05:27.551Z,7252
2019-01-19T11:06:35.618Z,7524
2019-01-19T11:07:43.670Z,7568
2019-01-19T11:08:51.725Z,7716
2019-01-19T11:09:59.792Z,7588
2019-01-19T11:11:07.847Z,7612
2019-01-19T11:12:15.904Z,7456
2019-01-19T11:13:23.956Z,6852
2019-01-19T11:14:32.004Z,6868
2019-01-19T11:15:40.075Z,7256
2019-01-19T11:16:48.126Z,7472
2019-01-19T11:17:56.168Z,7552
2019-01-19T11:19:04.248Z,7476
2019-01-19T11:20:12.279Z,7132
2019-01-19T11:21:20.332Z,7068
2019-01-19T11:22:28.394Z,7280
2019-01-19T11:23:39.799Z,7276
2019-01-19T11:24:44.495Z,7680
2019-01-19T11:25:52.547Z,7500
2019-01-19T11:27:00.633Z,7420
2019-01-19T11:28:08.690Z,7948
2019-01-19T11:29:16.714Z,8392
2019-01-19T11:30:24.787Z,8296
2019-01-19T11:31:32.826Z,8136
2019-01-19T11:32:44.444Z,7692
2019-01-19T11:33:48.927Z,7692
2019-01-19T11:34:56.987Z,8292
2019-01-19T11:36:05.033Z,9024
2019-01-19T11:37:13.243Z,9768
2019-01-19T11:38:22.027Z,9548
2019-01-19T11:39:29.211Z,9080
2019-01-19T11:40:37.305Z,8944
2019-01-19T11:41:45.370Z,7956
2019-01-19T11:42:53.852Z,7424
2019-01-19T11:44:01.574Z,7248
2019-01-19T11:45:10.145Z,7152
2019-01-19T11:46:17.894Z,7164
2019-01-19T11:47:25.611Z,6932
2019-01-19T11:48:33.653Z,6648
2019-01-19T11:49:41.710Z,6628
2019-01-19T11:50:49.966Z,6712
2019-01-19T11:51:57.811Z,7120
2019-01-19T11:53:05.873Z,7404
2019-01-19T11:54:13.934Z,7184
2019-01-19T11:55:22.028Z,6960
2019-01-19T11:56:30.031Z,7000
2019-01-19T11:57:38.089Z,6744
2019-01-19T11:58:46.168Z,6496
2019-01-19T11:59:54.215Z,6620
2019-01-19T12:01:02.736Z,6932
2019-01-19T12:02:10.401Z,7560
2019-01-19T12:03:18.375Z,8112
2019-01-19T12:04:26.790Z,7956
2019-01-19T12:05:34.477Z,7392
2019-01-19T12:06:42.536Z,6928
2019-01-19T12:07:50.570Z,7008
2019-01-19T12:08:58.622Z,7644
2019-01-19T12:10:06.742Z,8632
2019-01-19T12:11:14.801Z,8168
2019-01-19T12:12:22.800Z,7048
2019-01-19T12:13:30.855Z,7020
2019-01-19T12:14:38.930Z,7948
2019-01-19T12:15:46.967Z,8388
2019-01-19T12:16:55.029Z,7280
2019-01-19T12:18:03.079Z,6088
2019-01-19T12:19:11.113Z,6476
2019-01-19T12:20:19.189Z,7184
2019-01-19T12:21:27.231Z,7028
2019-01-19T12:22:35.301Z,7304
2019-01-19T12:23:43.362Z,8184
2019-01-19T12:24:51.413Z,8468
2019-01-19T12:25:59.459Z,7760
2019-01-19T12:27:07.512Z,7364
2019-01-19T12:28:15.571Z,7552
2019-01-19T12:29:23.637Z,7364
2019-01-19T12:30:31.683Z,7336
2019-01-19T12:31:39.735Z,7548
2019-01-19T12:32:47.792Z,7916
2019-01-19T12:33:55.889Z,7016
2019-01-19T12:35:04.248Z,6380
2019-01-19T12:36:11.941Z,6668
2019-01-19T12:37:20.009Z,7172
2019-01-19T12:38:28.074Z,7728
2019-01-19T12:39:36.126Z,7708
2019-01-19T12:40:44.165Z,7120
2019-01-19T12:41:52.244Z,7536
2019-01-19T12:43:00.269Z,7480
2019-01-19T12:44:08.339Z,6912
2019-01-19T12:45:16.392Z,6328
2019-01-19T12:46:24.462Z,6884
2019-01-19T12:47:32.517Z,7700
2019-01-19T12:48:40.544Z,8588
2019-01-19T12:49:48.614Z,9040
2019-01-19T12:50:56.676Z,8228
2019-01-19T12:52:04.726Z,7952
2019-01-19T12:53:12.775Z,8116
2019-01-19T12:54:20.828Z,7900
2019-01-19T12:55:28.889Z,7108
2019-01-19T12:56:36.939Z,6084
2019-01-19T12:57:45.009Z,6172
2019-01-19T12:58:53.045Z,6420
2019-01-19T13:00:01.157Z,7084
2019-01-19T13:01:09.165Z,7256
2019-01-19T13:02:17.261Z,6556
2019-01-19T13:03:25.275Z,6068
2019-01-19T13:04:33.369Z,5816
2019-01-19T13:05:41.407Z,6088
2019-01-19T13:06:49.452Z,6628
2019-01-19T13:07:57.492Z,7504
2019-01-19T13:09:12.314Z,8556
2019-01-19T13:10:13.817Z,9420
2019-01-19T13:11:21.657Z,8880
2019-01-19T13:12:29.704Z,7032
2019-01-19T13:13:37.773Z,5752
2019-01-19T13:14:46.276Z,5692
2019-01-19T13:15:53.871Z,6224
2019-01-19T13:17:01.933Z,6376
2019-01-19T13:18:10.001Z,6164
2019-01-19T13:19:18.029Z,6240
2019-01-19T13:20:26.259Z,6744
2019-01-19T13:21:34.173Z,7192
2019-01-19T13:22:42.246Z,6824
2019-01-19T13:23:50.266Z,6620
2019-01-19T13:24:58.381Z,6340
2019-01-19T13:26:06.382Z,6548
2019-01-19T13:27:14.414Z,6620
2019-01-19T13:28:22.500Z,5976
2019-01-19T13:29:30.532Z,5640
2019-01-19T13:30:38.609Z,5652
2019-01-19T13:31:46.646Z,5132
2019-01-19T13:32:54.722Z,4636
2019-01-19T13:34:02.763Z,4784
2019-01-19T13:35:10.810Z,5028
2019-01-19T13:36:18.877Z,5088
2019-01-19T13:37:26.932Z,5360
2019-01-19T13:38:41.553Z,5820
2019-01-19T13:39:43.037Z,5356
2019-01-19T13:40:51.072Z,5136
2019-01-19T13:41:59.162Z,5336
2019-01-19T13:43:07.205Z,5924
2019-01-19T13:44:15.260Z,6472
2019-01-19T13:45:23.312Z,6376
2019-01-19T13:46:31.359Z,5936
2019-01-19T13:47:39.423Z,5460
2019-01-19T13:48:47.476Z,5272
2019-01-19T13:49:55.529Z,5744
2019-01-19T13:51:03.599Z,5680
2019-01-19T13:52:11.643Z,5208
2019-01-19T13:53:19.757Z,4848
2019-01-19T13:54:27.756Z,4920
2019-01-19T13:55:35.822Z,5268
2019-01-19T13:56:43.886Z,5048
2019-01-19T13:57:51.929Z,5052
2019-01-19T13:58:59.987Z,5336
2019-01-19T14:00:08.021Z,5316
2019-01-19T14:01:16.092Z,5076
2019-01-19T14:02:24.137Z,4764
2019-01-19T14:03:32.178Z,4260
2019-01-19T14:04:40.246Z,3996
2019-01-19T14:05:48.299Z,4188
2019-01-19T14:06:56.354Z,4140
2019-01-19T14:08:04.428Z,3920
2019-01-19T14:09:12.468Z,4124
2019-01-19T14:10:20.507Z,4432
2019-01-19T14:11:28.593Z,4160
2019-01-19T14:12:36.637Z,3816
2019-01-19T14:13:44.694Z,3796
2019-01-19T14:14:52.735Z,3644
2019-01-19T14:16:00.789Z,3404
2019-01-19T14:17:08.854Z,3292
2019-01-19T14:18:16.909Z,3348
2019-01-19T14:19:24.959Z,3480
2019-01-19T14:20:33.016Z,3692
2019-01-19T14:21:41.046Z,3924
2019-01-19T14:22:49.115Z,4136
2019-01-19T14:23:57.502Z,4036
2019-01-19T14:25:05.322Z,3864
2019-01-19T14:26:13.291Z,3680
2019-01-19T14:27:21.350Z,3588
2019-01-19T14:28:29.413Z,3564
2019-01-19T14:29:37.441Z,3432
2019-01-19T14:30:45.506Z,3268
2019-01-19T14:31:53.542Z,3116
2019-01-19T14:33:01.608Z,3064
2019-01-19T14:34:09.663Z,3164
2019-01-19T14:35:17.718Z,3392
2019-01-19T14:36:25.761Z,3420
2019-01-19T14:37:33.837Z,3244
2019-01-19T14:38:41.889Z,3140
2019-01-19T14:39:49.922Z,3036
2019-01-19T14:40:58.000Z,3124
2019-01-19T14:42:06.046Z,3096
2019-01-19T14:43:14.088Z,2892
2019-01-19T14:44:22.169Z,2784
2019-01-19T14:45:30.212Z,2796
2019-01-19T14:46:38.355Z,2716
2019-01-19T14:47:46.365Z,2728
2019-01-19T14:48:54.375Z,2728
2019-01-19T14:50:02.502Z,2788
2019-01-19T14:51:10.459Z,2732
2019-01-19T14:52:18.533Z,2660
2019-01-19T14:53:26.573Z,2620
2019-01-19T14:54:34.646Z,2580
2019-01-19T14:55:42.704Z,2624
2019-01-19T14:56:50.752Z,2660
2019-01-19T14:57:58.807Z,2688
2019-01-19T14:59:06.847Z,2680
2019-01-19T15:00:14.920Z,2640
2019-01-19T15:01:22.963Z,2524
2019-01-19T15:02:31.004Z,2424
2019-01-19T15:03:39.075Z,2376
2019-01-19T15:04:47.120Z,2288
2019-01-19T15:05:55.182Z,2140
2019-01-19T15:07:03.218Z,1928
2019-01-19T15:08:11.258Z,1772
2019-01-19T15:09:19.327Z,1672
2019-01-19T15:10:27.389Z,1624
2019-01-19T15:11:35.466Z,1580
2019-01-19T15:12:43.503Z,1524
2019-01-19T15:13:51.526Z,1460
2019-01-19T15:14:59.650Z,1436
2019-01-19T15:16:07.721Z,1468
2019-01-19T15:17:15.724Z,1520
2019-01-19T15:18:23.767Z,1540
2019-01-19T15:19:31.821Z,1568
2019-01-19T15:20:39.854Z,1632
2019-01-19T15:21:47.908Z,1660
2019-01-19T15:22:55.980Z,1648
2019-01-19T15:24:04.021Z,1588
2019-01-19T15:25:12.065Z,1488
2019-01-19T15:26:20.121Z,1356
2019-01-19T15:27:28.208Z,1284
2019-01-19T15:28:36.212Z,1216
2019-01-19T15:29:44.292Z,1160
2019-01-19T15:30:52.323Z,1144
2019-01-19T15:32:00.396Z,1112
2019-01-19T15:33:08.438Z,1100
2019-01-19T15:34:16.485Z,1104
2019-01-19T15:35:24.538Z,1068
2019-01-19T15:36:32.616Z,996
2019-01-19T15:37:40.670Z,912
2019-01-19T15:38:48.721Z,844
2019-01-19T15:39:56.755Z,788
2019-01-19T15:41:04.820Z,748
2019-01-19T15:42:12.847Z,728
2019-01-19T15:43:20.903Z,708
2019-01-19T15:44:28.962Z,688
2019-01-19T15:45:37.014Z,648
2019-01-19T15:46:45.080Z,604
2019-01-19T15:47:53.136Z,560
2019-01-19T15:49:01.159Z,520
2019-01-19T15:50:09.237Z,480